Aviation Digital Data Service (ADDS)

Output produced by METARs form (0222 UTC 16 July 2019)
found at http://www.aviationweather.gov/metar/data/
 
METAR text: OIIE 160200Z VRB03KT 9999 BKN100 32/03 Q1004
Conditions at: OIIE (IMAM KHOMEINI , IR) observed 0200 UTC 16 July 2019
Temperature: 32.0°C (90°F)
Dewpoint: 3.0°C (37°F) [RH = 16%]
Pressure (altimeter): 29.65 inches Hg (1004.0 mb)
Winds: variable direction winds at 3 MPH (3 knots; 1.5 m/s)
Visibility: 6 or more miles (10+ km)
Ceiling: 10000 feet AGL
Clouds: broken clouds at 10000 feet AGL
Weather: no significant weather observed at this time

METAR text: OIIE 160100Z 30004KT 9999 BKN100 31/03 Q1003
Conditions at: OIIE (IMAM KHOMEINI , IR) observed 0100 UTC 16 July 2019
Temperature: 31.0°C (88°F)
Dewpoint: 3.0°C (37°F) [RH = 17%]
Pressure (altimeter): 29.62 inches Hg (1003.0 mb)
Winds: from the WNW (300 degrees) at 5 MPH (4 knots; 2.1 m/s)
Visibility: 6 or more miles (10+ km)
Ceiling: 10000 feet AGL
Clouds: broken clouds at 10000 feet AGL
Weather: no significant weather observed at this time

METAR text: OIIE 160000Z 10010KT 9999 BKN100 35/02 Q1003
Conditions at: OIIE (IMAM KHOMEINI , IR) observed 0000 UTC 16 July 2019
Temperature: 35.0°C (95°F)
Dewpoint: 2.0°C (36°F) [RH = 13%]
Pressure (altimeter): 29.62 inches Hg (1003.0 mb)
Winds: from the E (100 degrees) at 12 MPH (10 knots; 5.1 m/s)
Visibility: 6 or more miles (10+ km)
Ceiling: 10000 feet AGL
Clouds: broken clouds at 10000 feet AGL
Weather: no significant weather observed at this time

METAR text: OIIE 152300Z 10006KT 9999 BKN100 35/03 Q1014
Conditions at: OIIE (IMAM KHOMEINI , IR) observed 2300 UTC 15 July 2019
Temperature: 35.0°C (95°F)
Dewpoint: 3.0°C (37°F) [RH = 13%]
Pressure (altimeter): 29.94 inches Hg (1014.0 mb)
Winds: from the E (100 degrees) at 7 MPH (6 knots; 3.1 m/s)
Visibility: 6 or more miles (10+ km)
Ceiling: 10000 feet AGL
Clouds: broken clouds at 10000 feet AGL
Weather: no significant weather observed at this time

METAR text: OIIE 152200Z 15010KT 9999 BKN100 36/03 Q1003
Conditions at: OIIE (IMAM KHOMEINI , IR) observed 2200 UTC 15 July 2019
Temperature: 36.0°C (97°F)
Dewpoint: 3.0°C (37°F) [RH = 13%]
Pressure (altimeter): 29.62 inches Hg (1003.0 mb)
Winds: from the SSE (150 degrees) at 12 MPH (10 knots; 5.1 m/s)
Visibility: 6 or more miles (10+ km)
Ceiling: 10000 feet AGL
Clouds: broken clouds at 10000 feet AGL
Weather: no significant weather observed at this time

METAR text: OIIE 152100Z 12012KT 9999 BKN100 37/03 Q1004
Conditions at: OIIE (IMAM KHOMEINI , IR) observed 2100 UTC 15 July 2019
Temperature: 37.0°C (99°F)
Dewpoint: 3.0°C (37°F) [RH = 12%]
Pressure (altimeter): 29.65 inches Hg (1004.0 mb)
Winds: from the ESE (120 degrees) at 14 MPH (12 knots; 6.2 m/s)
Visibility: 6 or more miles (10+ km)
Ceiling: 10000 feet AGL
Clouds: broken clouds at 10000 feet AGL
Weather: no significant weather observed at this time

METAR text: OIIE 152000Z 12010KT 9999 SCT100 37/03 Q1004
Conditions at: OIIE (IMAM KHOMEINI , IR) observed 2000 UTC 15 July 2019
Temperature: 37.0°C (99°F)
Dewpoint: 3.0°C (37°F) [RH = 12%]
Pressure (altimeter): 29.65 inches Hg (1004.0 mb)
Winds: from the ESE (120 degrees) at 12 MPH (10 knots; 5.1 m/s)
Visibility: 6 or more miles (10+ km)
Ceiling: at least 12,000 feet AGL
Clouds: scattered clouds at 10000 feet AGL
Weather: no significant weather observed at this time

METAR text: OIIE 151930Z 12012KT 9999 SCT100 38/03 Q1003
Conditions at: OIIE (IMAM KHOMEINI , IR) observed 1930 UTC 15 July 2019
Temperature: 38.0°C (100°F)
Dewpoint: 3.0°C (37°F) [RH = 11%]
Pressure (altimeter): 29.62 inches Hg (1003.0 mb)
Winds: from the ESE (120 degrees) at 14 MPH (12 knots; 6.2 m/s)
Visibility: 6 or more miles (10+ km)
Ceiling: at least 12,000 feet AGL
Clouds: scattered clouds at 10000 feet AGL
Weather: no significant weather observed at this time

METAR text: OIIE 151900Z 10006KT 9999 SCT100 36/03 Q1003 TEMPO 12024KT 5000 SHRA FEW030CB SCT040
Conditions at: OIIE (IMAM KHOMEINI , IR) observed 1900 UTC 15 July 2019
Temperature: 36.0°C (97°F)
Dewpoint: 3.0°C (37°F) [RH = 13%]
Pressure (altimeter): 29.62 inches Hg (1003.0 mb)
Winds: from the E (100 degrees) at 7 MPH (6 knots; 3.1 m/s)
Visibility: 6 or more miles (10+ km)
Ceiling: at least 12,000 feet AGL
Clouds: scattered clouds at 10000 feet AGL
Weather: no significant weather observed at this time

METAR text: OIIE 151800Z 12014KT 9999 SCT100 37/03 Q1003 TEMPO 12024KT 5000 SA FEW035CB SCT040
Conditions at: OIIE (IMAM KHOMEINI , IR) observed 1800 UTC 15 July 2019
Temperature: 37.0°C (99°F)
Dewpoint: 3.0°C (37°F) [RH = 12%]
Pressure (altimeter): 29.62 inches Hg (1003.0 mb)
Winds: from the ESE (120 degrees) at 16 MPH (14 knots; 7.2 m/s)
Visibility: 6 or more miles (10+ km)
Ceiling: at least 12,000 feet AGL
Clouds: scattered clouds at 10000 feet AGL
Weather: no significant weather observed at this time

METAR text: OIIE 151700Z 06006KT 9999 SCT100 38/04 Q1003
Conditions at: OIIE (IMAM KHOMEINI , IR) observed 1700 UTC 15 July 2019
Temperature: 38.0°C (100°F)
Dewpoint: 4.0°C (39°F) [RH = 12%]
Pressure (altimeter): 29.62 inches Hg (1003.0 mb)
Winds: from the ENE (60 degrees) at 7 MPH (6 knots; 3.1 m/s)
Visibility: 6 or more miles (10+ km)
Ceiling: at least 12,000 feet AGL
Clouds: scattered clouds at 10000 feet AGL
Weather: no significant weather observed at this time

METAR text: OIIE 151630Z 10006KT 9999 SCT100 38/03 Q1002
Conditions at: OIIE (IMAM KHOMEINI , IR) observed 1630 UTC 15 July 2019
Temperature: 38.0°C (100°F)
Dewpoint: 3.0°C (37°F) [RH = 11%]
Pressure (altimeter): 29.59 inches Hg (1002.0 mb)
Winds: from the E (100 degrees) at 7 MPH (6 knots; 3.1 m/s)
Visibility: 6 or more miles (10+ km)
Ceiling: at least 12,000 feet AGL
Clouds: scattered clouds at 10000 feet AGL
Weather: no significant weather observed at this time

METAR text: OIIE 151600Z 10008KT CAVOK 40/02 Q1002
Conditions at: OIIE (IMAM KHOMEINI , IR) observed 1600 UTC 15 July 2019
Temperature: 40.0°C (104°F)
Dewpoint: 2.0°C (36°F) [RH = 10%]
Pressure (altimeter): 29.59 inches Hg (1002.0 mb)
Winds: from the E (100 degrees) at 9 MPH (8 knots; 4.1 m/s)
Visibility: 6 or more miles (10+ km)
Ceiling: ceiling and visibility are OK
Clouds: unknown
Weather: no significant weather observed at this time

METAR text: OIIE 151530Z 10013KT 9999 FEW100 SCT200 40/03 Q1002
Conditions at: OIIE (IMAM KHOMEINI , IR) observed 1530 UTC 15 July 2019
Temperature: 40.0°C (104°F)
Dewpoint: 3.0°C (37°F) [RH = 10%]
Pressure (altimeter): 29.59 inches Hg (1002.0 mb)
Winds: from the E (100 degrees) at 15 MPH (13 knots; 6.7 m/s)
Visibility: 6 or more miles (10+ km)
Ceiling: at least 12,000 feet AGL
Clouds: few clouds at 10000 feet AGL
scattered clouds at 20000 feet AGL
Weather: no significant weather observed at this time

METAR text: OIIE 151500Z 10013KT 9999 FEW100 SCT200 41/02 Q1001
Conditions at: OIIE (IMAM KHOMEINI , IR) observed 1500 UTC 15 July 2019
Temperature: 41.0°C (106°F)
Dewpoint: 2.0°C (36°F) [RH =  9%]
Pressure (altimeter): 29.56 inches Hg (1001.0 mb)
Winds: from the E (100 degrees) at 15 MPH (13 knots; 6.7 m/s)
Visibility: 6 or more miles (10+ km)
Ceiling: at least 12,000 feet AGL
Clouds: few clouds at 10000 feet AGL
scattered clouds at 20000 feet AGL
Weather: no significant weather observed at this time

METAR text: OIIE 151430Z 11014KT 9999 FEW100 SCT200 42/03 Q1001
Conditions at: OIIE (IMAM KHOMEINI , IR) observed 1430 UTC 15 July 2019
Temperature: 42.0°C (108°F)
Dewpoint: 3.0°C (37°F) [RH =  9%]
Pressure (altimeter): 29.56 inches Hg (1001.0 mb)
Winds: from the ESE (110 degrees) at 16 MPH (14 knots; 7.2 m/s)
Visibility: 6 or more miles (10+ km)
Ceiling: at least 12,000 feet AGL
Clouds: few clouds at 10000 feet AGL
scattered clouds at 20000 feet AGL
Weather: no significant weather observed at this time

METAR text: OIIE 151400Z 12014KT 9999 FEW100 SCT200 42/03 Q1001
Conditions at: OIIE (IMAM KHOMEINI , IR) observed 1400 UTC 15 July 2019
Temperature: 42.0°C (108°F)
Dewpoint: 3.0°C (37°F) [RH =  9%]
Pressure (altimeter): 29.56 inches Hg (1001.0 mb)
Winds: from the ESE (120 degrees) at 16 MPH (14 knots; 7.2 m/s)
Visibility: 6 or more miles (10+ km)
Ceiling: at least 12,000 feet AGL
Clouds: few clouds at 10000 feet AGL
scattered clouds at 20000 feet AGL
Weather: no significant weather observed at this time

METAR text: OIIE 151330Z 11012KT 9999 FEW100 SCT200 42/03 Q1002
Conditions at: OIIE (IMAM KHOMEINI , IR) observed 1330 UTC 15 July 2019
Temperature: 42.0°C (108°F)
Dewpoint: 3.0°C (37°F) [RH =  9%]
Pressure (altimeter): 29.59 inches Hg (1002.0 mb)
Winds: from the ESE (110 degrees) at 14 MPH (12 knots; 6.2 m/s)
Visibility: 6 or more miles (10+ km)
Ceiling: at least 12,000 feet AGL
Clouds: few clouds at 10000 feet AGL
scattered clouds at 20000 feet AGL
Weather: no significant weather observed at this time

METAR text: OIIE 151300Z 11016KT 9999 FEW100 SCT200 43/04 Q1002
Conditions at: OIIE (IMAM KHOMEINI , IR) observed 1300 UTC 15 July 2019
Temperature: 43.0°C (109°F)
Dewpoint: 4.0°C (39°F) [RH =  9%]
Pressure (altimeter): 29.59 inches Hg (1002.0 mb)
Winds: from the ESE (110 degrees) at 18 MPH (16 knots; 8.2 m/s)
Visibility: 6 or more miles (10+ km)
Ceiling: at least 12,000 feet AGL
Clouds: few clouds at 10000 feet AGL
scattered clouds at 20000 feet AGL
Weather: no significant weather observed at this time

METAR text: OIIE 151230Z 12010KT 9999 FEW100 BKN200 42/03 Q1002
Conditions at: OIIE (IMAM KHOMEINI , IR) observed 1230 UTC 15 July 2019
Temperature: 42.0°C (108°F)
Dewpoint: 3.0°C (37°F) [RH =  9%]
Pressure (altimeter): 29.59 inches Hg (1002.0 mb)
Winds: from the ESE (120 degrees) at 12 MPH (10 knots; 5.1 m/s)
Visibility: 6 or more miles (10+ km)
Ceiling: 20000 feet AGL
Clouds: few clouds at 10000 feet AGL
broken clouds at 20000 feet AGL
Weather: no significant weather observed at this time

METAR text: OIIE 151200Z 12016KT 9999 FEW100 BKN200 42/04 Q1003
Conditions at: OIIE (IMAM KHOMEINI , IR) observed 1200 UTC 15 July 2019
Temperature: 42.0°C (108°F)
Dewpoint: 4.0°C (39°F) [RH = 10%]
Pressure (altimeter): 29.62 inches Hg (1003.0 mb)
Winds: from the ESE (120 degrees) at 18 MPH (16 knots; 8.2 m/s)
Visibility: 6 or more miles (10+ km)
Ceiling: 20000 feet AGL
Clouds: few clouds at 10000 feet AGL
broken clouds at 20000 feet AGL
Weather: no significant weather observed at this time

METAR text: OIIE 151130Z 10014KT CAVOK 42/05 Q1003
Conditions at: OIIE (IMAM KHOMEINI , IR) observed 1130 UTC 15 July 2019
Temperature: 42.0°C (108°F)
Dewpoint: 5.0°C (41°F) [RH = 11%]
Pressure (altimeter): 29.62 inches Hg (1003.0 mb)
Winds: from the E (100 degrees) at 16 MPH (14 knots; 7.2 m/s)
Visibility: 6 or more miles (10+ km)
Ceiling: ceiling and visibility are OK
Clouds: unknown
Weather: no significant weather observed at this time

METAR text: OIIE 151100Z 11015KT CAVOK 41/05 Q1003
Conditions at: OIIE (IMAM KHOMEINI , IR) observed 1100 UTC 15 July 2019
Temperature: 41.0°C (106°F)
Dewpoint: 5.0°C (41°F) [RH = 11%]
Pressure (altimeter): 29.62 inches Hg (1003.0 mb)
Winds: from the ESE (110 degrees) at 17 MPH (15 knots; 7.7 m/s)
Visibility: 6 or more miles (10+ km)
Ceiling: ceiling and visibility are OK
Clouds: unknown
Weather: no significant weather observed at this time

METAR text: OIIE 151030Z 11012KT CAVOK 41/07 Q1004
Conditions at: OIIE (IMAM KHOMEINI , IR) observed 1030 UTC 15 July 2019
Temperature: 41.0°C (106°F)
Dewpoint: 7.0°C (45°F) [RH = 13%]
Pressure (altimeter): 29.65 inches Hg (1004.0 mb)
Winds: from the ESE (110 degrees) at 14 MPH (12 knots; 6.2 m/s)
Visibility: 6 or more miles (10+ km)
Ceiling: ceiling and visibility are OK
Clouds: unknown
Weather: no significant weather observed at this time

METAR text: OIIE 151000Z 12011KT CAVOK 40/07 Q1004
Conditions at: OIIE (IMAM KHOMEINI , IR) observed 1000 UTC 15 July 2019
Temperature: 40.0°C (104°F)
Dewpoint: 7.0°C (45°F) [RH = 14%]
Pressure (altimeter): 29.65 inches Hg (1004.0 mb)
Winds: from the ESE (120 degrees) at 13 MPH (11 knots; 5.7 m/s)
Visibility: 6 or more miles (10+ km)
Ceiling: ceiling and visibility are OK
Clouds: unknown
Weather: no significant weather observed at this time

METAR text: OIIE 150930Z 08009KT CAVOK 40/07 Q1005
Conditions at: OIIE (IMAM KHOMEINI , IR) observed 0930 UTC 15 July 2019
Temperature: 40.0°C (104°F)
Dewpoint: 7.0°C (45°F) [RH = 14%]
Pressure (altimeter): 29.68 inches Hg (1005.0 mb)
Winds: from the E (80 degrees) at 10 MPH (9 knots; 4.6 m/s)
Visibility: 6 or more miles (10+ km)
Ceiling: ceiling and visibility are OK
Clouds: unknown
Weather: no significant weather observed at this time

METAR text: OIIE 150900Z 15006KT CAVOK 39/06 Q1005
Conditions at: OIIE (IMAM KHOMEINI , IR) observed 0900 UTC 15 July 2019
Temperature: 39.0°C (102°F)
Dewpoint: 6.0°C (43°F) [RH = 13%]
Pressure (altimeter): 29.68 inches Hg (1005.0 mb)
Winds: from the SSE (150 degrees) at 7 MPH (6 knots; 3.1 m/s)
Visibility: 6 or more miles (10+ km)
Ceiling: ceiling and visibility are OK
Clouds: unknown
Weather: no significant weather observed at this time

METAR text: OIIE 150830Z 09005KT CAVOK 38/09 Q1006
Conditions at: OIIE (IMAM KHOMEINI , IR) observed 0830 UTC 15 July 2019
Temperature: 38.0°C (100°F)
Dewpoint: 9.0°C (48°F) [RH = 17%]
Pressure (altimeter): 29.70 inches Hg (1006.0 mb)
Winds: from the E (90 degrees) at 6 MPH (5 knots; 2.6 m/s)
Visibility: 6 or more miles (10+ km)
Ceiling: ceiling and visibility are OK
Clouds: unknown
Weather: no significant weather observed at this time

METAR text: OIIE 150800Z VRB03KT 9999 FEW100 SCT200 36/10 Q1006
Conditions at: OIIE (IMAM KHOMEINI , IR) observed 0800 UTC 15 July 2019
Temperature: 36.0°C (97°F)
Dewpoint: 10.0°C (50°F) [RH = 21%]
Pressure (altimeter): 29.70 inches Hg (1006.0 mb)
Winds: variable direction winds at 3 MPH (3 knots; 1.5 m/s)
Visibility: 6 or more miles (10+ km)
Ceiling: at least 12,000 feet AGL
Clouds: few clouds at 10000 feet AGL
scattered clouds at 20000 feet AGL
Weather: no significant weather observed at this time

METAR text: OIIE 150730Z VRB03KT 9999 FEW100 SCT200 34/12 Q1007
Conditions at: OIIE (IMAM KHOMEINI , IR) observed 0730 UTC 15 July 2019
Temperature: 34.0°C (93°F)
Dewpoint: 12.0°C (54°F) [RH = 26%]
Pressure (altimeter): 29.73 inches Hg (1007.0 mb)
Winds: variable direction winds at 3 MPH (3 knots; 1.5 m/s)
Visibility: 6 or more miles (10+ km)
Ceiling: at least 12,000 feet AGL
Clouds: few clouds at 10000 feet AGL
scattered clouds at 20000 feet AGL
Weather: no significant weather observed at this time

METAR text: OIIE 150700Z 33013KT 9999 FEW100 SCT180 33/12 Q1007
Conditions at: OIIE (IMAM KHOMEINI , IR) observed 0700 UTC 15 July 2019
Temperature: 33.0°C (91°F)
Dewpoint: 12.0°C (54°F) [RH = 28%]
Pressure (altimeter): 29.73 inches Hg (1007.0 mb)
Winds: from the NNW (330 degrees) at 15 MPH (13 knots; 6.7 m/s)
Visibility: 6 or more miles (10+ km)
Ceiling: at least 12,000 feet AGL
Clouds: few clouds at 10000 feet AGL
scattered clouds at 18000 feet AGL
Weather: no significant weather observed at this time

METAR text: OIIE 150630Z 33015KT 9999 FEW100 SCT180 32/14 Q1007
Conditions at: OIIE (IMAM KHOMEINI , IR) observed 0630 UTC 15 July 2019
Temperature: 32.0°C (90°F)
Dewpoint: 14.0°C (57°F) [RH = 34%]
Pressure (altimeter): 29.73 inches Hg (1007.0 mb)
Winds: from the NNW (330 degrees) at 17 MPH (15 knots; 7.7 m/s)
Visibility: 6 or more miles (10+ km)
Ceiling: at least 12,000 feet AGL
Clouds: few clouds at 10000 feet AGL
scattered clouds at 18000 feet AGL
Weather: no significant weather observed at this time

METAR text: OIIE 150600Z 32014KT 9999 FEW100 SCT180 30/14 Q1007
Conditions at: OIIE (IMAM KHOMEINI , IR) observed 0600 UTC 15 July 2019
Temperature: 30.0°C (86°F)
Dewpoint: 14.0°C (57°F) [RH = 38%]
Pressure (altimeter): 29.73 inches Hg (1007.0 mb)
Winds: from the NW (320 degrees) at 16 MPH (14 knots; 7.2 m/s)
Visibility: 6 or more miles (10+ km)
Ceiling: at least 12,000 feet AGL
Clouds: few clouds at 10000 feet AGL
scattered clouds at 18000 feet AGL
Weather: no significant weather observed at this time

METAR text: OIIE 150530Z 31015KT 9999 FEW045 SCT180 29/14 Q1007
Conditions at: OIIE (IMAM KHOMEINI , IR) observed 0530 UTC 15 July 2019
Temperature: 29.0°C (84°F)
Dewpoint: 14.0°C (57°F) [RH = 40%]
Pressure (altimeter): 29.73 inches Hg (1007.0 mb)
Winds: from the NW (310 degrees) at 17 MPH (15 knots; 7.7 m/s)
Visibility: 6 or more miles (10+ km)
Ceiling: at least 12,000 feet AGL
Clouds: few clouds at 4500 feet AGL
scattered clouds at 18000 feet AGL
Weather: no significant weather observed at this time

METAR text: OIIE 150500Z 32011G24KT 9999 FEW045 SCT180 28/14 Q1007
Conditions at: OIIE (IMAM KHOMEINI , IR) observed 0500 UTC 15 July 2019
Temperature: 28.0°C (82°F)
Dewpoint: 14.0°C (57°F) [RH = 42%]
Pressure (altimeter): 29.73 inches Hg (1007.0 mb)
Winds: from the NW (320 degrees) at 13 MPH (11 knots; 5.7 m/s)
gusting to 28 MPH (24 knots; 12.3 m/s)
Visibility: 6 or more miles (10+ km)
Ceiling: at least 12,000 feet AGL
Clouds: few clouds at 4500 feet AGL
scattered clouds at 18000 feet AGL
Weather: no significant weather observed at this time

METAR text: OIIE 150430Z 32018KT 9999 FEW045 SCT100 27/14 Q1007
Conditions at: OIIE (IMAM KHOMEINI , IR) observed 0430 UTC 15 July 2019
Temperature: 27.0°C (81°F)
Dewpoint: 14.0°C (57°F) [RH = 45%]
Pressure (altimeter): 29.73 inches Hg (1007.0 mb)
Winds: from the NW (320 degrees) at 21 MPH (18 knots; 9.3 m/s)
Visibility: 6 or more miles (10+ km)
Ceiling: at least 12,000 feet AGL
Clouds: few clouds at 4500 feet AGL
scattered clouds at 10000 feet AGL
Weather: no significant weather observed at this time

METAR text: OIIE 150400Z 31018KT 9999 FEW045 SCT100 26/14 Q1007
Conditions at: OIIE (IMAM KHOMEINI , IR) observed 0400 UTC 15 July 2019
Temperature: 26.0°C (79°F)
Dewpoint: 14.0°C (57°F) [RH = 48%]
Pressure (altimeter): 29.73 inches Hg (1007.0 mb)
Winds: from the NW (310 degrees) at 21 MPH (18 knots; 9.3 m/s)
Visibility: 6 or more miles (10+ km)
Ceiling: at least 12,000 feet AGL
Clouds: few clouds at 4500 feet AGL
scattered clouds at 10000 feet AGL
Weather: no significant weather observed at this time

METAR text: OIIE 150330Z 32020KT 9999 FEW045 SCT100 25/14 Q1006
Conditions at: OIIE (IMAM KHOMEINI , IR) observed 0330 UTC 15 July 2019
Temperature: 25.0°C (77°F)
Dewpoint: 14.0°C (57°F) [RH = 50%]
Pressure (altimeter): 29.70 inches Hg (1006.0 mb)
Winds: from the NW (320 degrees) at 23 MPH (20 knots; 10.3 m/s)
Visibility: 6 or more miles (10+ km)
Ceiling: at least 12,000 feet AGL
Clouds: few clouds at 4500 feet AGL
scattered clouds at 10000 feet AGL
Weather: no significant weather observed at this time

METAR text: OIIE 150300Z 30018KT 9999 FEW045 SCT100 24/15 Q1006
Conditions at: OIIE (IMAM KHOMEINI , IR) observed 0300 UTC 15 July 2019
Temperature: 24.0°C (75°F)
Dewpoint: 15.0°C (59°F) [RH = 57%]
Pressure (altimeter): 29.70 inches Hg (1006.0 mb)
Winds: from the WNW (300 degrees) at 21 MPH (18 knots; 9.3 m/s)
Visibility: 6 or more miles (10+ km)
Ceiling: at least 12,000 feet AGL
Clouds: few clouds at 4500 feet AGL
scattered clouds at 10000 feet AGL
Weather: no significant weather observed at this time

METAR text: OIIE 150230Z 30018KT 9999 FEW045 SCT100 24/15 Q1006
Conditions at: OIIE (IMAM KHOMEINI , IR) observed 0230 UTC 15 July 2019
Temperature: 24.0°C (75°F)
Dewpoint: 15.0°C (59°F) [RH = 57%]
Pressure (altimeter): 29.70 inches Hg (1006.0 mb)
Winds: from the WNW (300 degrees) at 21 MPH (18 knots; 9.3 m/s)
Visibility: 6 or more miles (10+ km)
Ceiling: at least 12,000 feet AGL
Clouds: few clouds at 4500 feet AGL
scattered clouds at 10000 feet AGL
Weather: no significant weather observed at this time

METAR text: OIIE 150200Z 29020KT 9999 FEW045 SCT100 23/15 Q1005
Conditions at: OIIE (IMAM KHOMEINI , IR) observed 0200 UTC 15 July 2019
Temperature: 23.0°C (73°F)
Dewpoint: 15.0°C (59°F) [RH = 61%]
Pressure (altimeter): 29.68 inches Hg (1005.0 mb)
Winds: from the WNW (290 degrees) at 23 MPH (20 knots; 10.3 m/s)
Visibility: 6 or more miles (10+ km)
Ceiling: at least 12,000 feet AGL
Clouds: few clouds at 4500 feet AGL
scattered clouds at 10000 feet AGL
Weather: no significant weather observed at this time

METAR text: OIIE 150130Z 31022KT 9999 FEW045 SCT110 23/14 Q1005
Conditions at: OIIE (IMAM KHOMEINI , IR) observed 0130 UTC 15 July 2019
Temperature: 23.0°C (73°F)
Dewpoint: 14.0°C (57°F) [RH = 57%]
Pressure (altimeter): 29.68 inches Hg (1005.0 mb)
Winds: from the NW (310 degrees) at 25 MPH (22 knots; 11.3 m/s)
Visibility: 6 or more miles (10+ km)
Ceiling: at least 12,000 feet AGL
Clouds: few clouds at 4500 feet AGL
scattered clouds at 11000 feet AGL
Weather: no significant weather observed at this time

METAR text: OIIE 150100Z 32024KT 9999 FEW045 SCT110 23/14 Q1005
Conditions at: OIIE (IMAM KHOMEINI , IR) observed 0100 UTC 15 July 2019
Temperature: 23.0°C (73°F)
Dewpoint: 14.0°C (57°F) [RH = 57%]
Pressure (altimeter): 29.68 inches Hg (1005.0 mb)
Winds: from the NW (320 degrees) at 28 MPH (24 knots; 12.3 m/s)
Visibility: 6 or more miles (10+ km)
Ceiling: at least 12,000 feet AGL
Clouds: few clouds at 4500 feet AGL
scattered clouds at 11000 feet AGL
Weather: no significant weather observed at this time

METAR text: OIIE 150030Z 32022KT 9999 FEW045 SCT110 23/14 Q1005
Conditions at: OIIE (IMAM KHOMEINI , IR) observed 0030 UTC 15 July 2019
Temperature: 23.0°C (73°F)
Dewpoint: 14.0°C (57°F) [RH = 57%]
Pressure (altimeter): 29.68 inches Hg (1005.0 mb)
Winds: from the NW (320 degrees) at 25 MPH (22 knots; 11.3 m/s)
Visibility: 6 or more miles (10+ km)
Ceiling: at least 12,000 feet AGL
Clouds: few clouds at 4500 feet AGL
scattered clouds at 11000 feet AGL
Weather: no significant weather observed at this time

METAR text: OIIE 150000Z 30015G26KT 9999 FEW045 SCT110 24/14 Q1005
Conditions at: OIIE (IMAM KHOMEINI , IR) observed 0000 UTC 15 July 2019
Temperature: 24.0°C (75°F)
Dewpoint: 14.0°C (57°F) [RH = 54%]
Pressure (altimeter): 29.68 inches Hg (1005.0 mb)
Winds: from the WNW (300 degrees) at 17 MPH (15 knots; 7.7 m/s)
gusting to 30 MPH (26 knots; 13.4 m/s)
Visibility: 6 or more miles (10+ km)
Ceiling: at least 12,000 feet AGL
Clouds: few clouds at 4500 feet AGL
scattered clouds at 11000 feet AGL
Weather: no significant weather observed at this time

METAR text: OIIE 142330Z 32024KT 9999 FEW045 SCT110 24/14 Q1004
Conditions at: OIIE (IMAM KHOMEINI , IR) observed 2330 UTC 14 July 2019
Temperature: 24.0°C (75°F)
Dewpoint: 14.0°C (57°F) [RH = 54%]
Pressure (altimeter): 29.65 inches Hg (1004.0 mb)
Winds: from the NW (320 degrees) at 28 MPH (24 knots; 12.3 m/s)
Visibility: 6 or more miles (10+ km)
Ceiling: at least 12,000 feet AGL
Clouds: few clouds at 4500 feet AGL
scattered clouds at 11000 feet AGL
Weather: no significant weather observed at this time

METAR text: OIIE 142300Z 32027KT 9999 FEW045 SCT100 24/14 Q1004
Conditions at: OIIE (IMAM KHOMEINI , IR) observed 2300 UTC 14 July 2019
Temperature: 24.0°C (75°F)
Dewpoint: 14.0°C (57°F) [RH = 54%]
Pressure (altimeter): 29.65 inches Hg (1004.0 mb)
Winds: from the NW (320 degrees) at 31 MPH (27 knots; 13.9 m/s)
Visibility: 6 or more miles (10+ km)
Ceiling: at least 12,000 feet AGL
Clouds: few clouds at 4500 feet AGL
scattered clouds at 10000 feet AGL
Weather: no significant weather observed at this time

METAR text: OIIE 142230Z 32028KT 9999 FEW045 SCT100 24/14 Q1003
Conditions at: OIIE (IMAM KHOMEINI , IR) observed 2230 UTC 14 July 2019
Temperature: 24.0°C (75°F)
Dewpoint: 14.0°C (57°F) [RH = 54%]
Pressure (altimeter): 29.62 inches Hg (1003.0 mb)
Winds: from the NW (320 degrees) at 32 MPH (28 knots; 14.4 m/s)
Visibility: 6 or more miles (10+ km)
Ceiling: at least 12,000 feet AGL
Clouds: few clouds at 4500 feet AGL
scattered clouds at 10000 feet AGL
Weather: no significant weather observed at this time

METAR text: OIIE 142200Z 32025KT 9999 FEW040 FEW045CB SCT100 25/14 Q1004
Conditions at: OIIE (IMAM KHOMEINI , IR) observed 2200 UTC 14 July 2019
Temperature: 25.0°C (77°F)
Dewpoint: 14.0°C (57°F) [RH = 50%]
Pressure (altimeter): 29.65 inches Hg (1004.0 mb)
Winds: from the NW (320 degrees) at 29 MPH (25 knots; 12.9 m/s)
Visibility: 6 or more miles (10+ km)
Ceiling: at least 12,000 feet AGL
Clouds: few clouds at 4000 feet AGL
few clouds at 4500 feet AGL
scattered clouds at 10000 feet AGL
Weather: no significant weather observed at this time

METAR text: OIIE 142130Z 32024G37KT 9999 FEW040 FEW045CB SCT100 26/14 Q1004
Conditions at: OIIE (IMAM KHOMEINI , IR) observed 2130 UTC 14 July 2019
Temperature: 26.0°C (79°F)
Dewpoint: 14.0°C (57°F) [RH = 48%]
Pressure (altimeter): 29.65 inches Hg (1004.0 mb)
Winds: from the NW (320 degrees) at 28 MPH (24 knots; 12.3 m/s)
gusting to 43 MPH (37 knots; 19.0 m/s)
Visibility: 6 or more miles (10+ km)
Ceiling: at least 12,000 feet AGL
Clouds: few clouds at 4000 feet AGL
few clouds at 4500 feet AGL
scattered clouds at 10000 feet AGL
Weather: no significant weather observed at this time

METAR text: OIIE 142100Z 33020G30KT 9999 FEW040 FEW045CB SCT100 26/14 Q1004 TEMPO 33020G30KT FEW040 FEW045CB SCT100
Conditions at: OIIE (IMAM KHOMEINI , IR) observed 2100 UTC 14 July 2019
Temperature: 26.0°C (79°F)
Dewpoint: 14.0°C (57°F) [RH = 48%]
Pressure (altimeter): 29.65 inches Hg (1004.0 mb)
Winds: from the NNW (330 degrees) at 23 MPH (20 knots; 10.3 m/s)
gusting to 34 MPH (30 knots; 15.4 m/s)
Visibility: 6 or more miles (10+ km)
Ceiling: at least 12,000 feet AGL
Clouds: few clouds at 4000 feet AGL
few clouds at 4500 feet AGL
scattered clouds at 10000 feet AGL
Weather: no significant weather observed at this time

METAR text: OIIE 142030Z 33020G30KT 9999 FEW040 FEW045CB SCT100 27/13 Q1003
Conditions at: OIIE (IMAM KHOMEINI , IR) observed 2030 UTC 14 July 2019
Temperature: 27.0°C (81°F)
Dewpoint: 13.0°C (55°F) [RH = 42%]
Pressure (altimeter): 29.62 inches Hg (1003.0 mb)
Winds: from the NNW (330 degrees) at 23 MPH (20 knots; 10.3 m/s)
gusting to 34 MPH (30 knots; 15.4 m/s)
Visibility: 6 or more miles (10+ km)
Ceiling: at least 12,000 feet AGL
Clouds: few clouds at 4000 feet AGL
few clouds at 4500 feet AGL
scattered clouds at 10000 feet AGL
Weather: no significant weather observed at this time

METAR text: OIIE 142000Z 32023KT 9999 FEW045 SCT100 28/13 Q1003 TEMPO 32024G34KT
Conditions at: OIIE (IMAM KHOMEINI , IR) observed 2000 UTC 14 July 2019
Temperature: 28.0°C (82°F)
Dewpoint: 13.0°C (55°F) [RH = 40%]
Pressure (altimeter): 29.62 inches Hg (1003.0 mb)
Winds: from the NW (320 degrees) at 26 MPH (23 knots; 11.8 m/s)
Visibility: 6 or more miles (10+ km)
Ceiling: at least 12,000 feet AGL
Clouds: few clouds at 4500 feet AGL
scattered clouds at 10000 feet AGL
Weather: no significant weather observed at this time

METAR text: OIIE 141930Z 32018G28KT 9999 SCT100 28/12 Q1003
Conditions at: OIIE (IMAM KHOMEINI , IR) observed 1930 UTC 14 July 2019
Temperature: 28.0°C (82°F)
Dewpoint: 12.0°C (54°F) [RH = 37%]
Pressure (altimeter): 29.62 inches Hg (1003.0 mb)
Winds: from the NW (320 degrees) at 21 MPH (18 knots; 9.3 m/s)
gusting to 32 MPH (28 knots; 14.4 m/s)
Visibility: 6 or more miles (10+ km)
Ceiling: at least 12,000 feet AGL
Clouds: scattered clouds at 10000 feet AGL
Weather: no significant weather observed at this time

METAR text: OIIE 141900Z 32022KT 9999 SCT100 30/12 Q1003
Conditions at: OIIE (IMAM KHOMEINI , IR) observed 1900 UTC 14 July 2019
Temperature: 30.0°C (86°F)
Dewpoint: 12.0°C (54°F) [RH = 33%]
Pressure (altimeter): 29.62 inches Hg (1003.0 mb)
Winds: from the NW (320 degrees) at 25 MPH (22 knots; 11.3 m/s)
Visibility: 6 or more miles (10+ km)
Ceiling: at least 12,000 feet AGL
Clouds: scattered clouds at 10000 feet AGL
Weather: no significant weather observed at this time

METAR text: OIIE 141830Z 32019KT 9999 SCT100 31/12 Q1003
Conditions at: OIIE (IMAM KHOMEINI , IR) observed 1830 UTC 14 July 2019
Temperature: 31.0°C (88°F)
Dewpoint: 12.0°C (54°F) [RH = 31%]
Pressure (altimeter): 29.62 inches Hg (1003.0 mb)
Winds: from the NW (320 degrees) at 22 MPH (19 knots; 9.8 m/s)
Visibility: 6 or more miles (10+ km)
Ceiling: at least 12,000 feet AGL
Clouds: scattered clouds at 10000 feet AGL
Weather: no significant weather observed at this time

METAR text: OIIE 141800Z 33008G18KT 9999 FEW100 33/08 Q1003
Conditions at: OIIE (IMAM KHOMEINI , IR) observed 1800 UTC 14 July 2019
Temperature: 33.0°C (91°F)
Dewpoint: 8.0°C (46°F) [RH = 21%]
Pressure (altimeter): 29.62 inches Hg (1003.0 mb)
Winds: from the NNW (330 degrees) at 9 MPH (8 knots; 4.1 m/s)
gusting to 21 MPH (18 knots; 9.3 m/s)
Visibility: 6 or more miles (10+ km)
Ceiling: at least 12,000 feet AGL
Clouds: few clouds at 10000 feet AGL
Weather: no significant weather observed at this time

METAR text: OIIE 141730Z 33005KT 9999 FEW100 34/05 Q1002
Conditions at: OIIE (IMAM KHOMEINI , IR) observed 1730 UTC 14 July 2019
Temperature: 34.0°C (93°F)
Dewpoint: 5.0°C (41°F) [RH = 16%]
Pressure (altimeter): 29.59 inches Hg (1002.0 mb)
Winds: from the NNW (330 degrees) at 6 MPH (5 knots; 2.6 m/s)
Visibility: 6 or more miles (10+ km)
Ceiling: at least 12,000 feet AGL
Clouds: few clouds at 10000 feet AGL
Weather: no significant weather observed at this time

METAR text: OIIE 141700Z VRB03KT 9999 FEW100 36/05 Q1002
Conditions at: OIIE (IMAM KHOMEINI , IR) observed 1700 UTC 14 July 2019
Temperature: 36.0°C (97°F)
Dewpoint: 5.0°C (41°F) [RH = 15%]
Pressure (altimeter): 29.59 inches Hg (1002.0 mb)
Winds: variable direction winds at 3 MPH (3 knots; 1.5 m/s)
Visibility: 6 or more miles (10+ km)
Ceiling: at least 12,000 feet AGL
Clouds: few clouds at 10000 feet AGL
Weather: no significant weather observed at this time

METAR text: OIIE 141630Z 35004KT 9999 FEW100 36/06 Q1002
Conditions at: OIIE (IMAM KHOMEINI , IR) observed 1630 UTC 14 July 2019
Temperature: 36.0°C (97°F)
Dewpoint: 6.0°C (43°F) [RH = 16%]
Pressure (altimeter): 29.59 inches Hg (1002.0 mb)
Winds: from the N (350 degrees) at 5 MPH (4 knots; 2.1 m/s)
Visibility: 6 or more miles (10+ km)
Ceiling: at least 12,000 feet AGL
Clouds: few clouds at 10000 feet AGL
Weather: no significant weather observed at this time

METAR text: OIIE 141600Z 05005KT 9999 FEW100 SCT200 38/04 Q1002
Conditions at: OIIE (IMAM KHOMEINI , IR) observed 1600 UTC 14 July 2019
Temperature: 38.0°C (100°F)
Dewpoint: 4.0°C (39°F) [RH = 12%]
Pressure (altimeter): 29.59 inches Hg (1002.0 mb)
Winds: from the NE (50 degrees) at 6 MPH (5 knots; 2.6 m/s)
Visibility: 6 or more miles (10+ km)
Ceiling: at least 12,000 feet AGL
Clouds: few clouds at 10000 feet AGL
scattered clouds at 20000 feet AGL
Weather: no significant weather observed at this time

METAR text: OIIE 141530Z 04004KT CAVOK 40/04 Q1002
Conditions at: OIIE (IMAM KHOMEINI , IR) observed 1530 UTC 14 July 2019
Temperature: 40.0°C (104°F)
Dewpoint: 4.0°C (39°F) [RH = 11%]
Pressure (altimeter): 29.59 inches Hg (1002.0 mb)
Winds: from the NE (40 degrees) at 5 MPH (4 knots; 2.1 m/s)
Visibility: 6 or more miles (10+ km)
Ceiling: ceiling and visibility are OK
Clouds: unknown
Weather: no significant weather observed at this time

METAR text: OIIE 141500Z 03008KT CAVOK 41/04 Q1002
Conditions at: OIIE (IMAM KHOMEINI , IR) observed 1500 UTC 14 July 2019
Temperature: 41.0°C (106°F)
Dewpoint: 4.0°C (39°F) [RH = 10%]
Pressure (altimeter): 29.59 inches Hg (1002.0 mb)
Winds: from the NNE (30 degrees) at 9 MPH (8 knots; 4.1 m/s)
Visibility: 6 or more miles (10+ km)
Ceiling: ceiling and visibility are OK
Clouds: unknown
Weather: no significant weather observed at this time

METAR text: OIIE 141430Z 06006KT CAVOK 42/03 Q1002
Conditions at: OIIE (IMAM KHOMEINI , IR) observed 1430 UTC 14 July 2019
Temperature: 42.0°C (108°F)
Dewpoint: 3.0°C (37°F) [RH =  9%]
Pressure (altimeter): 29.59 inches Hg (1002.0 mb)
Winds: from the ENE (60 degrees) at 7 MPH (6 knots; 3.1 m/s)
Visibility: 6 or more miles (10+ km)
Ceiling: ceiling and visibility are OK
Clouds: unknown
Weather: no significant weather observed at this time

Forecast for: OIIE (IMAM KHOMEINI , IR)
Text: TAF OIIE 152300Z 1600/1706 12010KT 9999 SCT100 1604/1606 14014KT
Forecast period: 0000 UTC 16 July 2019 to 0600 UTC 17 July 2019
Forecast type: FROM: standard forecast or significant change
Winds: from the ESE (120 degrees) at 12 MPH (10 knots; 5.1 m/s)
Visibility: 6 or more miles 10+ km)
Ceiling: at least 12,000 feet AGL
Clouds: scattered clouds at 10000 feet AGL
Weather: no significant weather forecast for this period
Text: TEMPO 1609/1615 14020KT FEW035CB SCT040 SCT100
Forecast period: 0900 to 1500 UTC 16 July 2019
Forecast type: TEMPORARY: The following changes expected for less than half the time period
Winds: from the SE (140 degrees) at 23 MPH (20 knots; 10.3 m/s)
Visibility: missing
Ceiling: at least 12,000 feet AGL
Clouds: few clouds at 3500 feet AGL
scattered clouds at 4000 feet AGL
scattered clouds at 10000 feet AGL
Weather: no significant weather forecast for this period